Chie Maru No.10 — JD2376 — position and weather

sailwx.info

Track history (hours):
 
Tides and Currents Weather Stations Pressure Air Temp Water Temp Dewpoint Dewpoint Depression Visibility Wind Speed Wind Dir Waves Ship Positions

Chie Maru No.10

Last reported at 2017-Mar-07 11:14 UTC. Time now 2017-Mar-24 17:50 UTC.
Position N 34°58' E 139°24'.
Warning: this ship's position is 17 days out of date.

Length 72 m; draft 5 m.

Type: Ship. MMSI: 431000147.

Date/timePositionNaut miles runAvg speedWind from/ knotsBaromVisibWave heightAir tempDewpointWater temp
2017-Mar-07 11:14N 34°58' E 139°24'710.0
2017-Mar-07 10:33N 35°02' E 139°31'1111.0
2017-Mar-07 09:33N 35°07' E 139°43'1110.6
2017-Mar-07 08:33N 35°18' E 139°44'1110.6
2017-Mar-07 07:33N 35°28' E 139°47'3 3.1
2017-Mar-07 06:33N 35°31' E 139°46'0 0.0
2017-Mar-07 05:33N 35°31' E 139°46'0 0.0
2017-Mar-07 04:33N 35°31' E 139°46'0 0.0
2017-Mar-07 03:33N 35°31' E 139°46'0 0.0
2017-Mar-07 02:33N 35°31' E 139°46'3 3.1
2017-Mar-07 01:33N 35°29' E 139°48'0 0.0
2017-Mar-07 00:31N 35°29' E 139°48'0 0.0
2017-Mar-06 23:31N 35°29' E 139°48'0 0.0
2017-Mar-06 22:34N 35°29' E 139°48'0 0.0
2017-Mar-06 21:31N 35°29' E 139°48'0 0.0
2017-Mar-06 20:31N 35°29' E 139°48'0 0.0
2017-Mar-06 19:33N 35°29' E 139°48'0 0.0
2017-Mar-06 18:25N 35°29' E 139°48'0 0.0
2017-Mar-06 17:29N 35°29' E 139°48'0 0.0
2017-Mar-06 16:32N 35°29' E 139°48'0 0.0
2017-Mar-06 15:32N 35°29' E 139°48'0 0.0
2017-Mar-06 14:32N 35°29' E 139°48'0 0.0
2017-Mar-06 13:32N 35°29' E 139°48'0 0.1
2017-Mar-06 12:29N 35°29' E 139°48'5 5.3
2017-Mar-06 11:33N 35°24' E 139°46'1211.9
2017-Mar-06 10:33N 35°12' E 139°47'1212.1
2017-Mar-06 09:33N 35°02' E 139°39'16 0.9
2017-Mar-05 16:14N 34°57' E 139°21'811.3
2017-Mar-05 15:33N 35°01' E 139°29'1111.1
2017-Mar-05 14:33N 35°07' E 139°41'1010.2
2017-Mar-05 13:33N 35°16' E 139°45'10 9.8
2017-Mar-05 12:33N 35°26' E 139°45'1111.0
2017-Mar-05 11:33N 35°30' E 139°58'2 0.4
2017-Mar-05 05:33N 35°29' E 139°55'1 0.6
2017-Mar-05 04:04N 35°29' E 139°54'0 0.0
2017-Mar-05 03:22N 35°29' E 139°54'0 0.0
2017-Mar-05 02:28N 35°29' E 139°54'5 5.9
2017-Mar-05 01:33N 35°27' E 139°48'7 7.4
2017-Mar-05 00:33N 35°24' E 139°40'0 0.0
2017-Mar-04 23:33N 35°24' E 139°40'4 4.3
2017-Mar-04 22:33N 35°22' E 139°44'0 0.1
2017-Mar-04 21:33N 35°22' E 139°44'0 0.0
2017-Mar-04 20:33N 35°22' E 139°44'0 0.0
2017-Mar-04 19:33N 35°22' E 139°44'0 0.0
2017-Mar-04 18:33N 35°22' E 139°44'0 0.0
2017-Mar-04 17:24N 35°22' E 139°44'0 0.0
2017-Mar-04 16:27N 35°22' E 139°44'0 0.0
2017-Mar-04 15:27N 35°22' E 139°44'0 0.0
2017-Mar-04 14:24N 35°22' E 139°44'0 0.0
2017-Mar-04 11:33N 35°22' E 139°44'2 2.4
2017-Mar-04 10:33N 35°20' E 139°43'1212.3
2017-Mar-04 09:33N 35°07' E 139°46'15 0.6
2017-Mar-03 08:33N 35°01' E 139°30'1211.5
2017-Mar-03 07:33N 35°07' E 139°42'1110.4
2017-Mar-03 06:31N 35°17' E 139°44'1010.0
2017-Mar-03 05:34N 35°27' E 139°46'4 4.3
2017-Mar-03 04:34N 35°31' E 139°46'0 0.0
2017-Mar-03 03:34N 35°31' E 139°46'0 0.0
2017-Mar-03 02:33N 35°31' E 139°46'0 0.0
2017-Mar-03 01:34N 35°31' E 139°46'0 0.0
2017-Mar-03 00:33N 35°31' E 139°46'0 0.3
2017-Mar-02 23:33N 35°31' E 139°46'3 2.8
2017-Mar-02 22:27N 35°29' E 139°49'0 0.1
2017-Mar-02 21:33N 35°29' E 139°49'0 0.0
2017-Mar-02 20:27N 35°29' E 139°49'0 0.0
2017-Mar-02 19:33N 35°29' E 139°49'0 0.0
2017-Mar-02 18:33N 35°29' E 139°49'0 0.0
2017-Mar-02 17:33N 35°29' E 139°49'0 0.0
2017-Mar-02 16:33N 35°29' E 139°49'0 0.0
2017-Mar-02 15:30N 35°29' E 139°49'0 0.0
2017-Mar-02 14:33N 35°29' E 139°49'0 0.0
2017-Mar-02 13:33N 35°29' E 139°49'0 0.0
2017-Mar-02 12:33N 35°29' E 139°49'0 0.0
2017-Mar-02 11:33N 35°29' E 139°49'0 0.1
2017-Mar-02 10:33N 35°29' E 139°49'0 0.1
2017-Mar-02 09:33N 35°29' E 139°49'8 8.4
2017-Mar-02 08:33N 35°23' E 139°41'2 1.7
2017-Mar-02 07:33N 35°25' E 139°39'0 0.0
2017-Mar-02 05:26N 35°25' E 139°39'0 0.0
2017-Mar-02 04:31N 35°25' E 139°39'0 0.0
2017-Mar-02 03:26N 35°25' E 139°39'2 2.1
2017-Mar-02 02:24N 35°23' E 139°41'4 5.0
2017-Mar-02 01:33N 35°19' E 139°43'1010.2
2017-Mar-02 00:34N 35°09' E 139°46'1111.3
2017-Mar-01 23:33N 35°00' E 139°36'  
Track history (hours):
 
Tides and Currents Weather Stations Pressure Air Temp Water Temp Dewpoint Dewpoint Depression Visibility Wind Speed Wind Dir Waves Ship Positions

Chie Maru No.10

Last reported at 2017-Mar-07 11:14 UTC. Time now 2017-Mar-24 17:50 UTC.
Position N 34°58' E 139°24'.
Warning: this ship's position is 17 days out of date.

Length 72 m; draft 5 m.

Type: Ship. MMSI: 431000147.

Date/timePositionNaut miles runAvg speedWind from/ knotsBaromVisibWave heightAir tempDewpointWater temp
2017-Mar-07 11:14N 34°58' E 139°24'710.0
2017-Mar-07 10:33N 35°02' E 139°31'1111.0
2017-Mar-07 09:33N 35°07' E 139°43'1110.6
2017-Mar-07 08:33N 35°18' E 139°44'1110.6
2017-Mar-07 07:33N 35°28' E 139°47'3 3.1
2017-Mar-07 06:33N 35°31' E 139°46'0 0.0
2017-Mar-07 05:33N 35°31' E 139°46'0 0.0
2017-Mar-07 04:33N 35°31' E 139°46'0 0.0
2017-Mar-07 03:33N 35°31' E 139°46'0 0.0
2017-Mar-07 02:33N 35°31' E 139°46'3 3.1
2017-Mar-07 01:33N 35°29' E 139°48'0 0.0
2017-Mar-07 00:31N 35°29' E 139°48'0 0.0
2017-Mar-06 23:31N 35°29' E 139°48'0 0.0
2017-Mar-06 22:34N 35°29' E 139°48'0 0.0
2017-Mar-06 21:31N 35°29' E 139°48'0 0.0
2017-Mar-06 20:31N 35°29' E 139°48'0 0.0
2017-Mar-06 19:33N 35°29' E 139°48'0 0.0
2017-Mar-06 18:25N 35°29' E 139°48'0 0.0
2017-Mar-06 17:29N 35°29' E 139°48'0 0.0
2017-Mar-06 16:32N 35°29' E 139°48'0 0.0
2017-Mar-06 15:32N 35°29' E 139°48'0 0.0
2017-Mar-06 14:32N 35°29' E 139°48'0 0.0
2017-Mar-06 13:32N 35°29' E 139°48'0 0.1
2017-Mar-06 12:29N 35°29' E 139°48'5 5.3
2017-Mar-06 11:33N 35°24' E 139°46'1211.9
2017-Mar-06 10:33N 35°12' E 139°47'1212.1
2017-Mar-06 09:33N 35°02' E 139°39'16 0.9
2017-Mar-05 16:14N 34°57' E 139°21'811.3
2017-Mar-05 15:33N 35°01' E 139°29'1111.1
2017-Mar-05 14:33N 35°07' E 139°41'1010.2
2017-Mar-05 13:33N 35°16' E 139°45'10 9.8
2017-Mar-05 12:33N 35°26' E 139°45'1111.0
2017-Mar-05 11:33N 35°30' E 139°58'2 0.4
2017-Mar-05 05:33N 35°29' E 139°55'1 0.6
2017-Mar-05 04:04N 35°29' E 139°54'0 0.0
2017-Mar-05 03:22N 35°29' E 139°54'0 0.0
2017-Mar-05 02:28N 35°29' E 139°54'5 5.9
2017-Mar-05 01:33N 35°27' E 139°48'7 7.4
2017-Mar-05 00:33N 35°24' E 139°40'0 0.0
2017-Mar-04 23:33N 35°24' E 139°40'4 4.3
2017-Mar-04 22:33N 35°22' E 139°44'0 0.1
2017-Mar-04 21:33N 35°22' E 139°44'0 0.0
2017-Mar-04 20:33N 35°22' E 139°44'0 0.0
2017-Mar-04 19:33N 35°22' E 139°44'0 0.0
2017-Mar-04 18:33N 35°22' E 139°44'0 0.0
2017-Mar-04 17:24N 35°22' E 139°44'0 0.0
2017-Mar-04 16:27N 35°22' E 139°44'0 0.0
2017-Mar-04 15:27N 35°22' E 139°44'0 0.0
2017-Mar-04 14:24N 35°22' E 139°44'0 0.0
2017-Mar-04 11:33N 35°22' E 139°44'2 2.4
2017-Mar-04 10:33N 35°20' E 139°43'1212.3
2017-Mar-04 09:33N 35°07' E 139°46'15 0.6
2017-Mar-03 08:33N 35°01' E 139°30'1211.5
2017-Mar-03 07:33N 35°07' E 139°42'1110.4
2017-Mar-03 06:31N 35°17' E 139°44'1010.0
2017-Mar-03 05:34N 35°27' E 139°46'4 4.3
2017-Mar-03 04:34N 35°31' E 139°46'0 0.0
2017-Mar-03 03:34N 35°31' E 139°46'0 0.0
2017-Mar-03 02:33N 35°31' E 139°46'0 0.0
2017-Mar-03 01:34N 35°31' E 139°46'0 0.0
2017-Mar-03 00:33N 35°31' E 139°46'0 0.3
2017-Mar-02 23:33N 35°31' E 139°46'3 2.8
2017-Mar-02 22:27N 35°29' E 139°49'0 0.1
2017-Mar-02 21:33N 35°29' E 139°49'0 0.0
2017-Mar-02 20:27N 35°29' E 139°49'0 0.0
2017-Mar-02 19:33N 35°29' E 139°49'0 0.0
2017-Mar-02 18:33N 35°29' E 139°49'0 0.0
2017-Mar-02 17:33N 35°29' E 139°49'0 0.0
2017-Mar-02 16:33N 35°29' E 139°49'0 0.0
2017-Mar-02 15:30N 35°29' E 139°49'0 0.0
2017-Mar-02 14:33N 35°29' E 139°49'0 0.0
2017-Mar-02 13:33N 35°29' E 139°49'0 0.0
2017-Mar-02 12:33N 35°29' E 139°49'0 0.0
2017-Mar-02 11:33N 35°29' E 139°49'0 0.1
2017-Mar-02 10:33N 35°29' E 139°49'0 0.1
2017-Mar-02 09:33N 35°29' E 139°49'8 8.4
2017-Mar-02 08:33N 35°23' E 139°41'2 1.7
2017-Mar-02 07:33N 35°25' E 139°39'0 0.0
2017-Mar-02 05:26N 35°25' E 139°39'0 0.0
2017-Mar-02 04:31N 35°25' E 139°39'0 0.0
2017-Mar-02 03:26N 35°25' E 139°39'2 2.1
2017-Mar-02 02:24N 35°23' E 139°41'4 5.0
2017-Mar-02 01:33N 35°19' E 139°43'1010.2
2017-Mar-02 00:34N 35°09' E 139°46'1111.3
2017-Mar-01 23:33N 35°00' E 139°36'  

Dump ship's entire track history